Terminal Aerodrome Forecast
Issued by NWS

Home | Current Version | Previous Version | Text Only | Print | Product List | Glossary On
Versions: 1 2 3 4 5 6 7 8 9 10 11 12 13 14 15 16 17 18 19
983
FTUS43 KBIS 242157 AAB
TAFDIK
TAF AMD
KDIK 242157Z 2422/2518 15007KT P6SM VCSH BKN070
     FM250200 10006KT P6SM -TSRA OVC040CB
     FM251100 05006KT 4SM -TSRA OVC025CB
     FM251400 06008KT P6SM SHRA VCTS OVC015CB=

USA.gov is the U.S. government's official web portal to all federal, state and local government web resources and services.